Time;durP1;ratioP1;P1;durP2;ratioP2;P2;SDS_P1;SDS_P2;PMS_P1;PMS_P2;Temp;Humidity;BMP_temperature;BMP_pressure;BME280_temperature;BME280_humidity;BME280_pressure;Samples;Min_cycle;Max_cycle;Signal;HPM_P1;HPM_P2
2021/12/04 00:01:23;;;;;;;2.00;1.80;;;;;;;;;;5009536;28;20242;-53
2021/12/04 00:03:51;;;;;;;5.80;2.27;;;;;;;;;;5010944;28;20204;-54
2021/12/04 00:06:39;;;;;;;1.80;1.70;;;;;;;;;;5035700;28;20177;-55
2021/12/04 00:09:04;;;;;;;1.90;1.47;;;;;;;;;;5028695;28;21913;-53
2021/12/04 00:11:31;;;;;;;1.90;1.70;;;;;;;;;;5009317;28;20272;-54
2021/12/04 00:13:57;;;;;;;2.20;1.67;;;;;;;;;;5027222;28;20198;-55
2021/12/04 00:16:24;;;;;;;2.03;1.60;;;;;;;;;;5013019;28;20640;-54
2021/12/04 00:18:50;;;;;;;1.60;1.50;;;;;;;;;;5027279;28;20182;-55
2021/12/04 00:21:16;;;;;;;2.20;2.00;;;;;;;;;;5011965;28;20668;-55
2021/12/04 00:23:43;;;;;;;2.10;1.60;;;;;;;;;;5011241;28;20170;-55
2021/12/04 00:26:09;;;;;;;2.50;1.83;;;;;;;;;;5010845;28;20275;-54
2021/12/04 00:28:35;;;;;;;1.80;1.70;;;;;;;;;;5012030;28;20200;-56
2021/12/04 00:31:07;;;;;;;1.77;1.67;;;;;;;;;;5027872;28;20221;-54
2021/12/04 00:33:35;;;;;;;1.60;1.50;;;;;;;;;;5010836;28;20240;-55
2021/12/04 00:36:05;;;;;;;2.20;1.70;;;;;;;;;;5019039;28;20656;-54
2021/12/04 00:49:18;;;;;;;2.50;2.30;;;;;;;;;;5028986;28;20212;-55
2021/12/04 00:51:54;;;;;;;2.30;2.10;;;;;;;;;;5010284;28;20264;-53
2021/12/04 00:54:20;;;;;;;2.13;1.93;;;;;;;;;;5029523;28;20189;-54
2021/12/04 00:56:47;;;;;;;3.00;2.73;;;;;;;;;;5010538;28;20562;-55
2021/12/04 00:59:13;;;;;;;2.87;2.63;;;;;;;;;;5010625;28;20204;-53
2021/12/04 01:01:41;;;;;;;2.90;2.70;;;;;;;;;;5027408;28;20174;-55
2021/12/04 01:04:11;;;;;;;3.90;2.97;;;;;;;;;;5011227;28;20193;-55
2021/12/04 01:06:37;;;;;;;3.33;2.90;;;;;;;;;;5029577;28;20169;-54
2021/12/04 01:09:04;;;;;;;3.20;2.90;;;;;;;;;;5028421;28;20759;-55
2021/12/04 01:11:31;;;;;;;2.80;2.60;;;;;;;;;;5025103;28;20181;-54
2021/12/04 01:13:57;;;;;;;6.47;3.30;;;;;;;;;;5010596;28;20204;-55
2021/12/04 01:16:23;;;;;;;4.00;3.60;;;;;;;;;;5026971;28;20640;-55
2021/12/04 01:18:49;;;;;;;4.37;3.97;;;;;;;;;;5027722;28;20273;-56
2021/12/04 01:21:16;;;;;;;3.73;3.33;;;;;;;;;;5010414;28;20182;-55
2021/12/04 01:23:42;;;;;;;3.60;3.30;;;;;;;;;;5028930;28;20174;-55
2021/12/04 01:26:08;;;;;;;3.70;3.40;;;;;;;;;;5028161;28;20240;-54
2021/12/04 01:28:34;;;;;;;4.53;4.13;;;;;;;;;;5016348;28;20714;-55
2021/12/04 01:31:01;;;;;;;3.97;3.60;;;;;;;;;;5008042;28;20551;-55
2021/12/04 01:33:27;;;;;;;3.63;3.33;;;;;;;;;;5009290;28;20259;-54
2021/12/04 01:35:53;;;;;;;4.17;3.77;;;;;;;;;;5027441;28;20169;-55
2021/12/04 01:38:19;;;;;;;3.70;3.40;;;;;;;;;;5010311;28;20275;-55
2021/12/04 01:40:45;;;;;;;4.00;3.70;;;;;;;;;;5008900;28;20185;-54
2021/12/04 01:43:12;;;;;;;3.53;3.20;;;;;;;;;;5007363;28;20201;-53
2021/12/04 01:45:38;;;;;;;4.20;3.80;;;;;;;;;;5010731;28;20383;-55
2021/12/04 01:48:05;;;;;;;4.23;3.83;;;;;;;;;;4992100;28;20701;-55
2021/12/04 01:50:32;;;;;;;4.30;3.90;;;;;;;;;;5028330;28;20267;-55
2021/12/04 01:52:59;;;;;;;4.30;3.90;;;;;;;;;;5007429;28;20206;-54
2021/12/04 01:55:26;;;;;;;5.30;3.93;;;;;;;;;;5008277;28;20174;-55
2021/12/04 01:57:52;;;;;;;4.07;3.67;;;;;;;;;;5010655;28;20638;-54
2021/12/04 02:00:19;;;;;;;3.70;3.40;;;;;;;;;;4993429;28;20244;-54
2021/12/04 02:02:45;;;;;;;4.27;3.87;;;;;;;;;;4988461;28;20245;-54
2021/12/04 02:05:11;;;;;;;4.10;3.70;;;;;;;;;;4995856;28;20461;-55
2021/12/04 02:07:37;;;;;;;3.97;3.57;;;;;;;;;;5014481;28;20603;-55
2021/12/04 02:10:04;;;;;;;4.20;3.90;;;;;;;;;;4991419;28;20179;-53
2021/12/04 02:12:31;;;;;;;4.20;3.80;;;;;;;;;;5006749;28;20198;-54
2021/12/04 02:14:57;;;;;;;3.87;3.57;;;;;;;;;;4990702;28;20210;-56
2021/12/04 02:17:23;;;;;;;4.13;3.80;;;;;;;;;;4989231;28;20182;-55
2021/12/04 02:19:53;;;;;;;3.70;3.40;;;;;;;;;;4990734;28;20178;-55
2021/12/04 02:22:22;;;;;;;4.20;3.70;;;;;;;;;;4997921;28;20193;-53
2021/12/04 02:24:48;;;;;;;3.70;3.37;;;;;;;;;;4974679;28;20592;-56
2021/12/04 02:27:15;;;;;;;4.63;3.90;;;;;;;;;;4990279;28;20178;-55
2021/12/04 02:29:49;;;;;;;4.07;3.77;;;;;;;;;;4990821;28;20182;-55
2021/12/04 02:32:16;;;;;;;3.80;3.50;;;;;;;;;;5008332;28;20179;-54
2021/12/04 02:34:42;;;;;;;3.60;3.30;;;;;;;;;;4971419;28;20530;-56
2021/12/04 02:37:10;;;;;;;4.20;3.70;;;;;;;;;;4991194;28;20643;-55
2021/12/04 02:39:38;;;;;;;4.07;3.70;;;;;;;;;;4990746;28;20551;-55
2021/12/04 02:42:05;;;;;;;4.77;4.00;;;;;;;;;;5010165;28;20576;-55
2021/12/04 02:44:39;;;;;;;4.07;3.70;;;;;;;;;;5012100;28;20186;-54
2021/12/04 02:47:06;;;;;;;3.67;3.30;;;;;;;;;;5010402;28;20171;-55
2021/12/04 02:49:32;;;;;;;3.80;3.43;;;;;;;;;;5012013;28;20530;-54
2021/12/04 02:52:03;;;;;;;3.70;3.40;;;;;;;;;;4993240;28;20249;-55
2021/12/04 02:54:29;;;;;;;3.60;3.30;;;;;;;;;;5008310;28;20194;-56
2021/12/04 02:56:56;;;;;;;4.47;3.47;;;;;;;;;;4993584;28;20197;-55
2021/12/04 02:59:22;;;;;;;4.33;3.53;;;;;;;;;;5012423;28;20185;-55
2021/12/04 03:01:52;;;;;;;3.77;3.47;;;;;;;;;;4992007;28;20186;-55
2021/12/04 03:04:21;;;;;;;4.73;3.50;;;;;;;;;;4994499;28;20221;-55
2021/12/04 03:06:47;;;;;;;3.80;3.40;;;;;;;;;;5011479;28;20244;-55
2021/12/04 03:09:14;;;;;;;6.30;3.87;;;;;;;;;;4992734;28;20236;-54
2021/12/04 03:11:41;;;;;;;3.60;3.30;;;;;;;;;;5011303;28;20669;-55
2021/12/04 03:14:08;;;;;;;4.00;3.70;;;;;;;;;;4993325;28;20206;-55
2021/12/04 03:16:35;;;;;;;3.43;3.13;;;;;;;;;;4991874;28;20178;-55
2021/12/04 03:19:02;;;;;;;4.10;3.70;;;;;;;;;;5013263;28;20217;-55
2021/12/04 03:21:28;;;;;;;3.70;3.40;;;;;;;;;;4993525;28;20645;-55
2021/12/04 03:23:59;;;;;;;4.00;3.70;;;;;;;;;;4993493;28;20178;-55
2021/12/04 03:26:25;;;;;;;4.70;4.20;;;;;;;;;;5011290;28;20174;-55
2021/12/04 03:28:53;;;;;;;3.40;3.10;;;;;;;;;;5011823;28;21158;-55
2021/12/04 03:31:28;;;;;;;3.77;3.47;;;;;;;;;;4991270;28;20175;-56
2021/12/04 03:42:11;;;;;;;3.97;3.43;;;;;;;;;;5010712;28;20193;-55
2021/12/04 03:44:38;;;;;;;4.13;3.73;;;;;;;;;;4993245;28;20189;-56
2021/12/04 03:47:05;;;;;;;3.83;3.43;;;;;;;;;;5000429;28;20206;-55
2021/12/04 03:49:31;;;;;;;4.20;3.80;;;;;;;;;;4993532;28;20753;-55
2021/12/04 03:51:58;;;;;;;4.20;3.80;;;;;;;;;;4993095;28;20218;-57
2021/12/04 03:54:28;;;;;;;4.03;3.70;;;;;;;;;;4992145;28;20291;-55
2021/12/04 03:57:03;;;;;;;4.63;4.10;;;;;;;;;;4993128;28;20224;-56
2021/12/04 03:59:30;;;;;;;4.30;3.83;;;;;;;;;;4992986;28;20669;-56
2021/12/04 04:01:57;;;;;;;4.40;4.00;;;;;;;;;;4984083;28;20700;-56
2021/12/04 04:04:23;;;;;;;4.10;3.70;;;;;;;;;;4993167;28;20185;-56
2021/12/04 04:06:50;;;;;;;4.93;3.70;;;;;;;;;;4992894;28;20182;-55
2021/12/04 04:09:16;;;;;;;4.27;3.87;;;;;;;;;;5008921;28;20187;-55
2021/12/04 04:11:46;;;;;;;3.97;3.60;;;;;;;;;;4992566;28;20277;-56
2021/12/04 04:14:13;;;;;;;4.17;3.73;;;;;;;;;;4976465;28;20217;-55
2021/12/04 04:16:42;;;;;;;4.63;4.23;;;;;;;;;;4990670;28;20711;-56
2021/12/04 04:19:09;;;;;;;4.40;4.00;;;;;;;;;;4994235;28;20183;-57
2021/12/04 04:21:39;;;;;;;4.27;3.97;;;;;;;;;;4992621;28;20273;-56
2021/12/04 04:24:16;;;;;;;4.37;3.77;;;;;;;;;;4992028;28;20586;-56
2021/12/04 04:26:43;;;;;;;3.67;3.37;;;;;;;;;;5009867;28;20629;-56
2021/12/04 04:29:10;;;;;;;4.27;3.73;;;;;;;;;;4992175;28;20214;-56
2021/12/04 04:31:45;;;;;;;4.63;4.23;;;;;;;;;;4995673;28;20178;-54
2021/12/04 04:34:11;;;;;;;4.20;3.80;;;;;;;;;;4991773;28;20275;-55
2021/12/04 05:12:24;;;;;;;3.80;3.40;;;;;;;;;;5013815;28;20989;-56
2021/12/04 05:14:56;;;;;;;4.20;3.67;;;;;;;;;;5028502;28;20170;-55
2021/12/04 05:17:54;;;;;;;3.80;3.40;;;;;;;;;;5010682;28;20311;-57
2021/12/04 05:20:25;;;;;;;4.00;3.60;;;;;;;;;;5009524;28;20170;-55
2021/12/04 05:22:51;;;;;;;3.63;3.33;;;;;;;;;;5000226;28;20304;-55
2021/12/04 05:25:18;;;;;;;4.43;4.03;;;;;;;;;;5018656;28;20692;-55
2021/12/04 05:27:44;;;;;;;3.27;2.97;;;;;;;;;;4999094;28;20201;-55
2021/12/04 05:30:11;;;;;;;3.33;2.97;;;;;;;;;;5010910;28;20194;-56
2021/12/04 05:32:37;;;;;;;4.10;3.67;;;;;;;;;;5009096;28;20186;-55
2021/12/04 05:35:03;;;;;;;4.07;3.40;;;;;;;;;;5011106;28;20170;-55
2021/12/04 05:37:30;;;;;;;4.00;3.60;;;;;;;;;;5032556;28;20169;-56
2021/12/04 05:39:56;;;;;;;3.60;3.30;;;;;;;;;;5009933;28;20947;-56
2021/12/04 05:42:22;;;;;;;3.70;3.40;;;;;;;;;;5027997;28;20185;-56
2021/12/04 05:44:49;;;;;;;3.47;3.17;;;;;;;;;;5010847;28;20188;-56
2021/12/04 05:47:21;;;;;;;4.13;3.30;;;;;;;;;;5008497;28;20209;-56
2021/12/04 05:54:55;;;;;;;3.73;3.33;;;;;;;;;;5027247;28;20209;-55
2021/12/04 05:57:22;;;;;;;3.37;2.80;;;;;;;;;;5009709;28;20193;-55
2021/12/04 05:59:51;;;;;;;3.37;3.07;;;;;;;;;;5009889;28;20190;-55
2021/12/04 06:02:19;;;;;;;3.53;3.03;;;;;;;;;;5008765;28;20273;-56
2021/12/04 06:04:45;;;;;;;3.33;3.03;;;;;;;;;;5010961;28;20213;-56
2021/12/04 06:07:14;;;;;;;3.30;2.80;;;;;;;;;;5009966;28;20283;-55
2021/12/04 06:09:41;;;;;;;2.90;2.70;;;;;;;;;;5011171;28;20220;-56
2021/12/04 06:12:08;;;;;;;2.80;2.60;;;;;;;;;;5009227;28;20178;-55
2021/12/04 06:14:34;;;;;;;2.90;2.60;;;;;;;;;;5008283;28;20208;-55
2021/12/04 06:17:01;;;;;;;2.63;2.43;;;;;;;;;;5020580;28;20268;-56
2021/12/04 06:24:59;;;;;;;3.40;2.70;;;;;;;;;;5027406;28;20707;-55
2021/12/04 06:27:28;;;;;;;5.13;2.60;;;;;;;;;;5009596;28;20632;-56
2021/12/04 06:29:55;;;;;;;2.47;2.17;;;;;;;;;;5027835;28;20181;-56
2021/12/04 06:32:21;;;;;;;2.47;2.27;;;;;;;;;;5026259;28;20184;-56
2021/12/04 06:34:47;;;;;;;2.77;2.57;;;;;;;;;;5028920;28;20805;-55
2021/12/04 06:37:14;;;;;;;3.03;2.60;;;;;;;;;;5009935;28;20185;-55
2021/12/04 06:39:41;;;;;;;2.97;2.63;;;;;;;;;;5028149;28;20185;-56
2021/12/04 06:42:10;;;;;;;2.43;2.13;;;;;;;;;;5009471;28;20209;-55
2021/12/04 06:44:36;;;;;;;2.60;2.40;;;;;;;;;;5027588;28;20653;-55
2021/12/04 06:47:03;;;;;;;3.63;2.43;;;;;;;;;;5008816;28;20636;-56
2021/12/04 06:49:37;;;;;;;2.27;2.13;;;;;;;;;;5027578;28;20235;-56
2021/12/04 06:52:07;;;;;;;3.30;2.60;;;;;;;;;;5026695;28;20306;-55
2021/12/04 06:54:39;;;;;;;2.57;2.30;;;;;;;;;;5025997;28;20557;-56
2021/12/04 06:57:09;;;;;;;2.80;2.60;;;;;;;;;;5026678;28;20205;-56
2021/12/04 06:59:38;;;;;;;2.33;2.13;;;;;;;;;;5009280;28;20232;-56
2021/12/04 07:02:04;;;;;;;2.40;2.20;;;;;;;;;;5025806;28;20273;-55
2021/12/04 07:04:37;;;;;;;2.57;2.37;;;;;;;;;;5028846;28;20186;-55
2021/12/04 07:07:04;;;;;;;2.87;2.50;;;;;;;;;;5010827;28;20294;-55
2021/12/04 07:09:30;;;;;;;2.77;2.37;;;;;;;;;;5010435;28;20193;-55
2021/12/04 07:11:58;;;;;;;2.40;2.20;;;;;;;;;;5026946;28;20641;-55
2021/12/04 07:14:24;;;;;;;2.63;2.43;;;;;;;;;;5026831;28;20220;-54
2021/12/04 07:16:51;;;;;;;2.70;2.30;;;;;;;;;;5025359;28;20178;-56
2021/12/04 07:19:17;;;;;;;2.27;2.07;;;;;;;;;;5026146;28;20197;-56
2021/12/04 07:21:45;;;;;;;2.40;2.20;;;;;;;;;;5026417;28;20210;-55
2021/12/04 07:24:11;;;;;;;2.63;2.43;;;;;;;;;;5025355;28;20197;-55
2021/12/04 07:26:37;;;;;;;2.57;2.37;;;;;;;;;;5025251;28;20680;-56
2021/12/04 07:29:03;;;;;;;2.60;2.33;;;;;;;;;;5023551;28;20186;-56
2021/12/04 07:31:30;;;;;;;3.00;2.70;;;;;;;;;;5028885;28;20268;-55
2021/12/04 07:33:56;;;;;;;2.83;2.60;;;;;;;;;;5031490;28;20656;-55
2021/12/04 07:36:25;;;;;;;2.60;2.37;;;;;;;;;;5031101;28;20170;-55
2021/12/04 07:38:51;;;;;;;2.47;2.23;;;;;;;;;;5031003;28;20189;-55
2021/12/04 07:41:17;;;;;;;2.47;2.27;;;;;;;;;;5007694;28;20192;-55
2021/12/04 07:43:44;;;;;;;2.70;2.50;;;;;;;;;;5030690;28;20611;-55
2021/12/04 07:46:10;;;;;;;3.00;2.70;;;;;;;;;;5011958;28;20231;-54
2021/12/04 07:48:36;;;;;;;2.60;2.40;;;;;;;;;;5031056;28;20272;-56
2021/12/04 07:51:02;;;;;;;2.63;2.43;;;;;;;;;;5008209;28;20611;-56
2021/12/04 07:53:32;;;;;;;2.47;2.27;;;;;;;;;;5009925;28;20194;-55
2021/12/04 07:55:58;;;;;;;3.03;2.70;;;;;;;;;;5006654;28;20198;-56
2021/12/04 07:58:24;;;;;;;3.57;2.23;;;;;;;;;;4991841;28;20240;-55
2021/12/04 08:00:50;;;;;;;2.87;2.57;;;;;;;;;;4991587;28;20678;-54
2021/12/04 08:03:17;;;;;;;2.43;2.23;;;;;;;;;;5008408;28;20569;-56
2021/12/04 08:05:43;;;;;;;3.07;2.83;;;;;;;;;;5009278;28;20191;-56
2021/12/04 08:08:10;;;;;;;2.53;2.33;;;;;;;;;;5009447;28;20182;-54
2021/12/04 08:10:36;;;;;;;3.10;2.63;;;;;;;;;;5002536;28;20178;-55
2021/12/04 08:13:03;;;;;;;3.03;2.73;;;;;;;;;;5009453;28;20198;-55
2021/12/04 08:15:30;;;;;;;2.93;2.60;;;;;;;;;;5009868;28;20266;-55
2021/12/04 08:17:56;;;;;;;2.50;2.27;;;;;;;;;;5017092;28;20232;-55
2021/12/04 08:20:25;;;;;;;3.17;2.87;;;;;;;;;;5018438;28;20182;-55
2021/12/04 08:22:51;;;;;;;3.47;3.17;;;;;;;;;;5007381;28;20182;-55
2021/12/04 08:25:18;;;;;;;3.20;2.90;;;;;;;;;;5008577;28;20187;-55
2021/12/04 08:27:44;;;;;;;4.00;3.60;;;;;;;;;;5007049;28;20265;-56
2021/12/04 08:30:12;;;;;;;2.87;2.50;;;;;;;;;;5005832;28;20752;-55
2021/12/04 08:32:39;;;;;;;3.03;2.73;;;;;;;;;;5007707;28;20689;-55
2021/12/04 08:35:06;;;;;;;3.10;2.80;;;;;;;;;;5002904;28;20179;-56
2021/12/04 08:37:32;;;;;;;3.00;2.70;;;;;;;;;;5006138;28;20186;-55
2021/12/04 08:39:58;;;;;;;3.90;3.47;;;;;;;;;;5010576;28;20181;-55
2021/12/04 08:42:24;;;;;;;3.33;2.70;;;;;;;;;;5009111;28;20630;-54
2021/12/04 08:44:52;;;;;;;3.43;3.10;;;;;;;;;;4991292;28;20562;-54
2021/12/04 08:47:18;;;;;;;3.30;3.00;;;;;;;;;;5006121;28;20191;-55
2021/12/04 08:49:44;;;;;;;3.50;3.20;;;;;;;;;;4993604;28;20653;-56
2021/12/04 08:52:10;;;;;;;3.43;3.03;;;;;;;;;;5021162;28;20233;-56
2021/12/04 08:54:37;;;;;;;3.17;2.87;;;;;;;;;;5029715;28;20744;-55
2021/12/04 08:57:04;;;;;;;3.03;2.70;;;;;;;;;;5023743;28;20273;-55
2021/12/04 08:59:32;;;;;;;3.00;2.73;;;;;;;;;;5024769;28;20192;-55
2021/12/04 09:01:58;;;;;;;3.27;2.97;;;;;;;;;;5028619;28;20178;-55
2021/12/04 09:04:26;;;;;;;3.73;3.17;;;;;;;;;;5029593;28;20687;-56
2021/12/04 09:06:53;;;;;;;3.37;3.07;;;;;;;;;;5029950;28;20657;-55
2021/12/04 09:09:21;;;;;;;3.30;3.00;;;;;;;;;;5032712;28;20225;-54
2021/12/04 09:11:49;;;;;;;3.37;3.03;;;;;;;;;;5029403;28;20182;-55
2021/12/04 09:14:18;;;;;;;3.23;2.93;;;;;;;;;;5016943;28;20616;-55
2021/12/04 09:16:45;;;;;;;3.67;3.20;;;;;;;;;;5027646;28;20247;-56
2021/12/04 09:19:11;;;;;;;3.30;3.00;;;;;;;;;;5028047;28;20181;-53
2021/12/04 09:21:39;;;;;;;4.23;3.67;;;;;;;;;;5025930;28;20170;-55
2021/12/04 09:24:14;;;;;;;3.70;3.40;;;;;;;;;;5024676;28;20178;-55
2021/12/04 09:26:50;;;;;;;3.70;3.40;;;;;;;;;;5023714;28;20181;-55
2021/12/04 10:18:12;;;;;;;3.60;3.20;;;;;;;;;;5024506;28;20201;-53
2021/12/04 10:34:48;;;;;;;4.17;3.57;;;;;;;;;;4925884;28;20244;-55
2021/12/04 10:37:19;;;;;;;4.13;3.13;;;;;;;;;;5025104;28;20170;-55
2021/12/04 10:39:45;;;;;;;3.33;3.03;;;;;;;;;;5011282;28;20193;-55
2021/12/04 10:42:15;;;;;;;5.67;3.20;;;;;;;;;;5020400;28;20288;-55
2021/12/04 10:44:48;;;;;;;3.07;2.77;;;;;;;;;;5008495;28;20170;-54
2021/12/04 10:47:21;;;;;;;3.23;2.93;;;;;;;;;;5008684;28;20174;-55
2021/12/04 10:53:03;;;;;;;4.27;2.70;;;;;;;;;;4994586;28;20241;-54
2021/12/04 11:20:09;;;;;;;3.10;2.80;;;;;;;;;;5009426;28;20263;-53
2021/12/04 11:39:09;;;;;;;2.90;2.60;;;;;;;;;;5008094;28;20201;-55
2021/12/04 11:41:44;;;;;;;4.77;2.90;;;;;;;;;;4999112;28;20673;-55
2021/12/04 11:44:14;;;;;;;3.33;2.50;;;;;;;;;;5003423;28;20584;-54
2021/12/04 11:46:44;;;;;;;3.03;2.73;;;;;;;;;;4984718;28;20264;-54
2021/12/04 11:49:13;;;;;;;2.70;2.50;;;;;;;;;;4992684;28;20186;-53
2021/12/04 11:51:47;;;;;;;2.70;2.50;;;;;;;;;;4998465;28;20226;-52
2021/12/04 11:54:13;;;;;;;2.37;2.17;;;;;;;;;;5020312;28;20210;-54
2021/12/04 11:56:39;;;;;;;2.27;2.13;;;;;;;;;;5022850;28;20194;-54
2021/12/04 11:59:06;;;;;;;2.70;2.50;;;;;;;;;;5029742;28;20637;-53
2021/12/04 12:01:34;;;;;;;2.40;2.20;;;;;;;;;;5010975;28;20594;-55
2021/12/04 12:04:07;;;;;;;4.17;2.40;;;;;;;;;;5017817;28;20182;-54
2021/12/04 12:06:42;;;;;;;2.30;2.10;;;;;;;;;;5008429;28;20628;-55
2021/12/04 12:09:12;;;;;;;2.20;2.10;;;;;;;;;;5023961;28;20217;-55
2021/12/04 12:11:46;;;;;;;1.90;1.80;;;;;;;;;;5007393;28;20692;-54
2021/12/04 12:14:14;;;;;;;1.90;1.80;;;;;;;;;;5025239;28;20197;-55
2021/12/04 12:16:48;;;;;;;2.00;1.80;;;;;;;;;;5009824;28;20186;-54
2021/12/04 12:19:26;;;;;;;2.17;2.07;;;;;;;;;;5024644;28;20205;-54
2021/12/04 12:21:57;;;;;;;2.67;1.97;;;;;;;;;;5028407;28;20549;-53
2021/12/04 12:24:48;;;;;;;2.30;2.10;;;;;;;;;;5024430;28;20185;-54
2021/12/04 12:38:16;;;;;;;2.30;2.10;;;;;;;;;;5025219;28;20691;-52
2021/12/04 12:40:42;;;;;;;2.30;2.10;;;;;;;;;;5028507;28;20209;-51
2021/12/04 12:43:10;;;;;;;2.30;2.10;;;;;;;;;;5007333;28;20239;-51
2021/12/04 12:45:36;;;;;;;2.53;2.33;;;;;;;;;;5021629;28;20277;-52
2021/12/04 12:48:07;;;;;;;2.40;2.10;;;;;;;;;;5007174;28;20680;-52
2021/12/04 12:50:34;;;;;;;2.33;2.10;;;;;;;;;;5035975;28;20412;-52
2021/12/04 12:53:05;;;;;;;2.50;2.30;;;;;;;;;;5006729;28;20587;-53
2021/12/04 12:55:33;;;;;;;2.40;2.20;;;;;;;;;;5025737;28;20643;-53
2021/12/04 12:58:10;;;;;;;2.40;2.20;;;;;;;;;;5024943;28;20186;-53
2021/12/04 13:11:51;;;;;;;2.87;2.30;;;;;;;;;;5028494;28;20581;-52
2021/12/04 13:14:23;;;;;;;3.10;2.37;;;;;;;;;;5008747;28;20206;-52
2021/12/04 13:16:51;;;;;;;5.00;2.63;;;;;;;;;;5001150;28;20648;-52
2021/12/04 13:19:19;;;;;;;2.70;2.50;;;;;;;;;;5010520;28;20228;-53
2021/12/04 13:21:47;;;;;;;3.47;2.80;;;;;;;;;;5011352;28;20216;-53
2021/12/04 13:24:13;;;;;;;2.70;2.50;;;;;;;;;;5027599;28;20439;-52
2021/12/04 13:26:41;;;;;;;2.70;2.50;;;;;;;;;;5027435;28;20185;-53
2021/12/04 13:29:08;;;;;;;6.17;3.70;;;;;;;;;;5019533;28;20285;-53
2021/12/04 13:31:39;;;;;;;3.90;3.20;;;;;;;;;;5008173;28;20185;-53
2021/12/04 13:34:07;;;;;;;3.30;3.00;;;;;;;;;;5012365;28;20216;-52
2021/12/04 13:36:34;;;;;;;3.67;2.97;;;;;;;;;;5027445;28;20782;-52
2021/12/04 13:39:03;;;;;;;3.03;2.73;;;;;;;;;;4993665;28;20184;-52
2021/12/04 13:41:30;;;;;;;4.27;3.70;;;;;;;;;;5005264;28;21407;-52
2021/12/04 13:43:59;;;;;;;4.97;4.27;;;;;;;;;;5010603;28;20193;-52
2021/12/04 13:46:26;;;;;;;6.27;4.17;;;;;;;;;;5008301;28;20178;-52
2021/12/04 13:48:59;;;;;;;5.17;4.47;;;;;;;;;;4994048;28;20181;-51
2021/12/04 13:51:25;;;;;;;6.13;4.20;;;;;;;;;;5019489;28;20229;-51
2021/12/04 13:53:52;;;;;;;5.20;3.87;;;;;;;;;;4994406;28;20202;-52
2021/12/04 13:56:23;;;;;;;6.63;4.33;;;;;;;;;;4992531;28;20736;-52
2021/12/04 13:58:52;;;;;;;5.50;4.47;;;;;;;;;;4988838;28;20542;-52
2021/12/04 14:01:19;;;;;;;4.97;4.10;;;;;;;;;;4983102;28;20213;-51
2021/12/04 14:03:47;;;;;;;4.57;3.77;;;;;;;;;;4978224;28;20187;-52
2021/12/04 14:06:19;;;;;;;4.03;3.70;;;;;;;;;;4987176;28;20273;-52
2021/12/04 14:08:57;;;;;;;4.30;3.90;;;;;;;;;;4982331;28;20642;-52
2021/12/04 14:11:31;;;;;;;4.43;4.03;;;;;;;;;;4989852;28;20194;-51
2021/12/04 14:13:58;;;;;;;6.13;4.23;;;;;;;;;;5006437;28;20534;-52
2021/12/04 14:16:27;;;;;;;6.03;4.33;;;;;;;;;;4991941;28;20253;-52
2021/12/04 14:18:54;;;;;;;6.37;3.87;;;;;;;;;;4990762;28;20233;-52
2021/12/04 14:21:20;;;;;;;5.43;4.90;;;;;;;;;;4973806;28;20213;-53
2021/12/04 14:23:49;;;;;;;6.23;4.70;;;;;;;;;;4990245;28;20691;-52
2021/12/04 14:26:15;;;;;;;5.63;5.07;;;;;;;;;;5007732;28;20248;-52
2021/12/04 14:28:43;;;;;;;7.20;5.97;;;;;;;;;;5007751;28;20257;-52
2021/12/04 14:31:10;;;;;;;6.37;5.03;;;;;;;;;;5017855;28;20692;-52
2021/12/04 14:33:38;;;;;;;6.77;6.07;;;;;;;;;;5008476;28;20210;-52
2021/12/04 14:36:04;;;;;;;5.67;5.10;;;;;;;;;;4989655;28;20400;-52
2021/12/04 14:38:31;;;;;;;5.67;4.87;;;;;;;;;;4992297;28;20795;-52
2021/12/04 14:41:00;;;;;;;6.10;5.50;;;;;;;;;;4987590;28;20590;-52
2021/12/04 14:43:28;;;;;;;5.70;5.10;;;;;;;;;;4984119;28;20230;-52
2021/12/04 14:45:57;;;;;;;9.13;8.23;;;;;;;;;;5007997;28;20186;-52
2021/12/04 14:48:38;;;;;;;6.20;5.60;;;;;;;;;;4996265;28;20192;-52
2021/12/04 14:51:06;;;;;;;6.90;6.30;;;;;;;;;;5006283;28;20341;-53
2021/12/04 14:53:38;;;;;;;5.63;5.13;;;;;;;;;;5027638;28;20327;-52
2021/12/04 14:56:06;;;;;;;7.63;5.70;;;;;;;;;;5012771;28;20271;-52
2021/12/04 14:58:33;;;;;;;6.93;6.33;;;;;;;;;;5031154;28;20200;-52
2021/12/04 15:01:02;;;;;;;6.77;6.07;;;;;;;;;;5025232;28;20193;-52
2021/12/04 15:03:34;;;;;;;6.23;5.63;;;;;;;;;;5013283;28;20182;-52
2021/12/04 15:06:03;;;;;;;6.73;6.03;;;;;;;;;;5025090;28;20641;-52
2021/12/04 15:08:34;;;;;;;7.07;5.20;;;;;;;;;;5029145;28;20181;-53
2021/12/04 15:11:06;;;;;;;6.47;5.83;;;;;;;;;;5012302;28;20562;-52
2021/12/04 15:13:35;;;;;;;7.07;5.97;;;;;;;;;;5011272;28;20224;-53
2021/12/04 15:16:03;;;;;;;6.17;5.57;;;;;;;;;;5025905;28;20715;-53
2021/12/04 15:18:38;;;;;;;7.87;5.97;;;;;;;;;;5011675;28;20256;-53
2021/12/04 15:21:14;;;;;;;6.90;6.20;;;;;;;;;;5012662;28;20177;-53
2021/12/04 15:23:42;;;;;;;6.43;5.73;;;;;;;;;;5027123;28;20194;-53
2021/12/04 15:26:19;;;;;;;7.17;6.47;;;;;;;;;;5006356;28;20691;-53
2021/12/04 15:28:53;;;;;;;7.03;6.33;;;;;;;;;;5025378;28;20181;-53
2021/12/04 15:31:21;;;;;;;6.87;6.27;;;;;;;;;;5023397;28;20303;-53
2021/12/04 15:33:49;;;;;;;7.13;6.17;;;;;;;;;;5018401;28;20202;-53
2021/12/04 15:36:30;;;;;;;10.33;7.07;;;;;;;;;;5013438;28;20188;-53
2021/12/04 15:38:58;;;;;;;8.20;7.50;;;;;;;;;;5017241;28;20403;-53
2021/12/04 15:47:04;;;;;;;9.43;6.27;;;;;;;;;;5015260;28;20205;-52
2021/12/04 15:55:18;;;;;;;7.20;6.50;;;;;;;;;;5027655;28;20258;-53
2021/12/04 15:57:55;;;;;;;6.77;6.07;;;;;;;;;;5033044;28;20596;-57
2021/12/04 16:00:21;;;;;;;6.63;5.97;;;;;;;;;;5029978;28;20173;-52
2021/12/04 16:02:52;;;;;;;7.33;5.90;;;;;;;;;;5031132;28;20560;-52
2021/12/04 16:05:21;;;;;;;8.03;5.83;;;;;;;;;;5013179;28;20586;-53
2021/12/04 16:08:00;;;;;;;8.20;7.33;;;;;;;;;;4995921;28;20768;-53
2021/12/04 16:10:26;;;;;;;7.80;6.93;;;;;;;;;;4996505;28;20177;-53
2021/12/04 16:12:54;;;;;;;10.17;6.07;;;;;;;;;;5013932;28;20781;-53
2021/12/04 16:15:22;;;;;;;9.53;7.17;;;;;;;;;;5030353;28;20174;-53
2021/12/04 16:17:48;;;;;;;9.33;7.67;;;;;;;;;;5011113;28;20178;-52
2021/12/04 16:20:17;;;;;;;10.13;7.87;;;;;;;;;;5012006;28;20216;-52
2021/12/04 16:22:45;;;;;;;11.67;7.73;;;;;;;;;;5030340;28;20565;-52
2021/12/04 16:25:17;;;;;;;8.67;6.80;;;;;;;;;;5030743;28;20271;-52
2021/12/04 16:28:17;;;;;;;9.93;8.07;;;;;;;;;;5030467;28;20178;-52
2021/12/04 16:30:49;;;;;;;10.27;9.17;;;;;;;;;;5019108;28;20224;-52
2021/12/04 16:36:06;;;;;;;10.20;8.30;;;;;;;;;;5029056;28;20930;-52
2021/12/04 16:38:33;;;;;;;9.00;8.10;;;;;;;;;;5034196;28;20635;-52
2021/12/04 16:41:06;;;;;;;10.40;8.10;;;;;;;;;;5037879;28;20174;-51
2021/12/04 16:43:36;;;;;;;12.27;10.23;;;;;;;;;;5012268;28;20219;-52
2021/12/04 16:46:09;;;;;;;10.50;9.40;;;;;;;;;;5029028;28;20178;-52
2021/12/04 16:48:39;;;;;;;10.50;9.40;;;;;;;;;;5011346;28;20185;-52
2021/12/04 16:59:12;;;;;;;12.83;10.30;;;;;;;;;;5028108;28;20597;-53
2021/12/04 17:01:40;;;;;;;9.27;8.33;;;;;;;;;;5012963;28;20693;-53
2021/12/04 17:04:06;;;;;;;8.57;7.63;;;;;;;;;;5010760;28;20174;-53
2021/12/04 17:06:33;;;;;;;9.57;8.20;;;;;;;;;;5010466;28;20173;-53
2021/12/04 17:09:00;;;;;;;8.90;8.00;;;;;;;;;;5017169;28;20590;-53
2021/12/04 17:11:26;;;;;;;9.73;8.43;;;;;;;;;;5021772;28;20615;-53
2021/12/04 17:13:53;;;;;;;10.23;8.75;;;;;;;;;;5010519;28;20430;-53
2021/12/04 17:16:26;;;;;;;8.93;7.93;;;;;;;;;;5009060;28;20189;-52
2021/12/04 17:18:57;;;;;;;8.10;7.30;;;;;;;;;;5027159;28;20178;-52
2021/12/04 17:21:23;;;;;;;8.07;7.23;;;;;;;;;;5009959;28;20185;-53
2021/12/04 17:23:53;;;;;;;7.20;6.50;;;;;;;;;;5010089;28;20182;-53
2021/12/04 17:26:19;;;;;;;8.57;6.37;;;;;;;;;;5028572;28;20285;-53
2021/12/04 17:28:46;;;;;;;7.03;6.33;;;;;;;;;;5026010;28;20174;-52
2021/12/04 17:31:16;;;;;;;8.03;6.97;;;;;;;;;;5024333;28;20174;-52
2021/12/04 17:33:44;;;;;;;7.03;6.33;;;;;;;;;;5028511;28;20251;-53
2021/12/04 17:36:12;;;;;;;8.80;7.23;;;;;;;;;;5001173;28;20730;-53
2021/12/04 17:38:43;;;;;;;7.40;6.60;;;;;;;;;;5028359;28;20169;-52
2021/12/04 17:41:12;;;;;;;6.90;6.27;;;;;;;;;;5015132;28;20260;-52
2021/12/04 17:43:39;;;;;;;7.27;6.57;;;;;;;;;;5027313;28;20197;-53
2021/12/04 17:46:06;;;;;;;8.93;6.77;;;;;;;;;;5028186;28;20170;-53
2021/12/04 17:48:32;;;;;;;7.43;6.73;;;;;;;;;;5017609;28;20193;-53
2021/12/04 17:50:59;;;;;;;6.77;6.17;;;;;;;;;;5006451;28;20221;-52
2021/12/04 17:53:27;;;;;;;7.23;6.53;;;;;;;;;;5012440;28;20296;-52
2021/12/04 17:55:53;;;;;;;8.67;6.97;;;;;;;;;;5011137;28;20194;-53
2021/12/04 17:58:20;;;;;;;7.70;6.90;;;;;;;;;;5011134;28;20722;-52
2021/12/04 18:00:49;;;;;;;7.00;6.40;;;;;;;;;;5027271;28;20579;-53
2021/12/04 18:03:18;;;;;;;6.60;6.00;;;;;;;;;;5012357;28;20200;-52
2021/12/04 18:05:45;;;;;;;8.13;7.10;;;;;;;;;;5010843;28;20185;-54
2021/12/04 18:08:14;;;;;;;7.17;6.43;;;;;;;;;;5009780;28;20196;-52
2021/12/04 18:10:45;;;;;;;8.33;7.40;;;;;;;;;;5028221;28;20603;-53
2021/12/04 18:13:13;;;;;;;7.57;6.80;;;;;;;;;;5027436;28;20189;-53
2021/12/04 18:15:42;;;;;;;7.23;6.53;;;;;;;;;;5027486;28;20197;-52
2021/12/04 18:18:08;;;;;;;8.93;6.83;;;;;;;;;;5029430;28;20239;-52
2021/12/04 18:20:35;;;;;;;7.80;7.00;;;;;;;;;;5026695;28;20197;-52
2021/12/04 18:23:02;;;;;;;7.63;6.83;;;;;;;;;;5037145;28;20281;-53
2021/12/04 18:25:29;;;;;;;6.83;6.17;;;;;;;;;;5014004;28;20224;-53
2021/12/04 18:27:56;;;;;;;7.57;6.53;;;;;;;;;;5018736;28;20177;-55